createdAt,value
2022-10-11T00:00:24.569Z,18.37
2022-10-11T00:04:25.560Z,18.53
2022-10-11T00:08:26.497Z,19.50
2022-10-11T00:12:27.463Z,18.07
2022-10-11T00:16:28.340Z,18.67
2022-10-11T00:20:29.263Z,19.40
2022-10-11T00:24:30.164Z,18.00
2022-10-11T00:28:32.404Z,17.53
2022-10-11T00:32:35.529Z,16.87
2022-10-11T00:36:36.580Z,17.10
2022-10-11T00:40:37.925Z,13.90
2022-10-11T00:44:40.201Z,14.00
2022-10-11T00:48:47.463Z,11.80
2022-10-11T00:52:55.232Z,9.27
2022-10-11T00:56:59.995Z,11.17
2022-10-11T01:01:01.939Z,12.10
2022-10-11T01:05:27.642Z,10.53
2022-10-11T01:09:08.542Z,10.87
2022-10-11T01:13:36.108Z,8.63
2022-10-11T01:17:57.427Z,7.80
2022-10-11T01:22:36.874Z,7.30
2022-10-11T01:27:14.941Z,6.17
2022-10-11T01:31:51.894Z,5.97
2022-10-11T01:36:05.672Z,4.23
2022-10-11T01:40:10.980Z,5.27
2022-10-11T01:44:12.915Z,5.00
2022-10-11T01:48:13.853Z,5.53
2022-10-11T01:52:15.062Z,3.37
2022-10-11T01:56:22.851Z,3.20
2022-10-11T02:00:27.994Z,2.97
2022-10-11T02:04:32.756Z,3.87
2022-10-11T02:08:55.755Z,2.63
2022-10-11T02:13:03.147Z,5.70
2022-10-11T02:17:07.914Z,2.90
2022-10-11T02:21:12.639Z,3.70
2022-10-11T02:25:17.253Z,2.83
2022-10-11T02:29:20.326Z,3.33
2022-10-11T02:33:25.197Z,3.30
2022-10-11T02:37:35.955Z,2.60
2022-10-11T02:41:39.237Z,3.47
2022-10-11T02:45:56.105Z,3.70
2022-10-11T02:49:59.141Z,3.80
2022-10-11T02:54:00.212Z,3.07
2022-10-11T02:58:01.456Z,2.77
2022-10-11T03:02:02.337Z,3.83
2022-10-11T03:06:04.847Z,3.83
2022-10-11T03:10:06.869Z,3.67
2022-10-11T03:14:07.715Z,4.63
2022-10-11T03:18:08.579Z,4.37
2022-10-11T03:22:09.451Z,3.67
2022-10-11T03:26:10.488Z,4.10
2022-10-11T03:30:15.137Z,4.20
2022-10-11T03:34:15.462Z,3.23
2022-10-11T03:38:20.187Z,4.33
2022-10-11T03:42:21.027Z,3.93
2022-10-11T03:46:21.980Z,5.20
2022-10-11T03:50:24.096Z,4.07
2022-10-11T03:54:25.655Z,4.10
2022-10-11T03:58:26.811Z,5.10
2022-10-11T04:02:27.723Z,4.33
2022-10-11T04:06:28.875Z,4.20
2022-10-11T04:10:30.903Z,4.40
2022-10-11T04:14:31.949Z,4.77
2022-10-11T04:18:32.793Z,3.97
2022-10-11T04:22:33.715Z,4.07
2022-10-11T04:26:34.660Z,3.40
2022-10-11T04:30:35.824Z,4.70
2022-10-11T04:34:37.178Z,4.67
2022-10-11T04:38:38.021Z,4.57
2022-10-11T04:42:39.009Z,4.33
2022-10-11T04:46:40.067Z,6.63
2022-10-11T04:50:40.897Z,5.75
2022-10-11T04:54:41.751Z,5.67
2022-10-11T04:58:42.794Z,5.33
2022-10-11T05:02:43.745Z,5.15
2022-10-11T05:06:44.571Z,5.10
2022-10-11T05:11:01.202Z,4.57
2022-10-11T05:15:02.482Z,4.73
2022-10-11T05:19:03.400Z,5.00
2022-10-11T05:23:04.328Z,4.87
2022-10-11T05:27:05.284Z,5.70
2022-10-11T05:31:06.448Z,5.80
2022-10-11T05:35:08.160Z,4.27
2022-10-11T05:39:09.246Z,4.00
2022-10-11T05:43:10.672Z,4.23
2022-10-11T05:47:11.667Z,4.37
2022-10-11T05:51:12.637Z,5.03
2022-10-11T05:55:13.801Z,4.40
2022-10-11T05:59:15.168Z,3.93
2022-10-11T06:03:16.110Z,5.43
2022-10-11T06:07:17.155Z,7.87
2022-10-11T06:11:21.615Z,4.90
2022-10-11T06:15:22.586Z,4.73
2022-10-11T06:19:23.777Z,4.33
2022-10-11T06:23:25.133Z,4.83
2022-10-11T06:27:26.061Z,3.77
2022-10-11T06:31:27.203Z,5.87
2022-10-11T06:35:28.306Z,4.60
2022-10-11T06:39:29.379Z,4.27
2022-10-11T06:43:30.341Z,5.13
2022-10-11T06:47:31.445Z,4.80
2022-10-11T06:51:34.597Z,4.63
2022-10-11T06:55:35.580Z,4.80
2022-10-11T06:59:36.654Z,7.37
2022-10-11T07:03:38.132Z,6.67
2022-10-11T07:07:39.455Z,6.43
2022-10-11T07:11:43.598Z,5.80
2022-10-11T07:15:44.673Z,6.67
2022-10-11T07:19:46.453Z,4.17
2022-10-11T07:23:47.918Z,3.13
2022-10-11T07:27:49.005Z,3.20
2022-10-11T07:31:50.255Z,4.10
2022-10-11T07:35:51.328Z,3.90
2022-10-11T07:39:52.428Z,3.33
2022-10-11T07:43:54.309Z,2.37
2022-10-11T07:47:57.553Z,2.93
2022-10-11T07:51:58.599Z,4.00
2022-10-11T07:56:01.419Z,2.80
2022-10-11T08:00:03.611Z,2.70
2022-10-11T08:04:04.677Z,3.73
2022-10-11T08:08:05.771Z,3.47
2022-10-11T08:12:07.598Z,2.87
2022-10-11T08:16:10.863Z,3.10
2022-10-11T08:20:12.674Z,3.17
2022-10-11T08:24:14.384Z,3.53
2022-10-11T08:28:16.794Z,3.40
2022-10-11T08:32:18.023Z,3.57
2022-10-11T08:36:19.141Z,3.17
2022-10-11T08:40:21.933Z,3.40
2022-10-11T08:45:09.463Z,3.50
2022-10-11T08:48:49.263Z,4.73
2022-10-11T08:53:05.930Z,2.67
2022-10-11T08:57:09.050Z,2.93
2022-10-11T09:01:17.300Z,4.20
2022-10-11T09:05:19.899Z,3.07
2022-10-11T09:09:45.941Z,2.93
2022-10-11T09:14:10.080Z,3.67
2022-10-11T09:18:40.485Z,3.37
2022-10-11T09:22:48.138Z,3.73
2022-10-11T09:26:58.942Z,3.80
2022-10-11T09:31:00.164Z,3.77
2022-10-11T09:35:10.905Z,3.73
2022-10-11T09:39:31.346Z,3.17
2022-10-11T09:43:32.758Z,4.53
2022-10-11T09:47:34.169Z,2.77
2022-10-11T09:51:36.493Z,3.27
2022-10-11T09:55:49.008Z,2.33
2022-10-11T10:00:06.651Z,2.97
2022-10-11T10:04:11.324Z,3.23
2022-10-11T10:08:22.227Z,3.47
2022-10-11T10:12:28.987Z,4.70
2022-10-11T10:16:32.474Z,3.33
2022-10-11T10:20:35.580Z,2.60
2022-10-11T10:24:39.327Z,2.83
2022-10-11T10:29:03.545Z,2.87
2022-10-11T10:33:09.794Z,2.93
2022-10-11T10:37:27.444Z,2.23
2022-10-11T10:41:28.789Z,3.30
2022-10-11T10:45:36.721Z,2.90
2022-10-11T10:49:55.182Z,3.23
2022-10-11T10:54:05.412Z,3.83
2022-10-11T10:58:12.880Z,4.30
2022-10-11T11:02:39.683Z,4.83
2022-10-11T11:06:50.734Z,2.40
2022-10-11T11:11:30.775Z,2.97
2022-10-11T11:15:37.886Z,2.40
2022-10-11T11:19:42.143Z,2.63
2022-10-11T11:23:47.039Z,2.67
2022-10-11T11:28:03.913Z,1.97
2022-10-11T11:32:11.620Z,5.00
2022-10-11T11:36:16.552Z,3.10
2022-10-11T11:40:21.388Z,2.83
2022-10-11T11:44:31.978Z,2.50
2022-10-11T11:48:33.298Z,2.77
2022-10-11T11:52:44.193Z,1.80
2022-10-11T11:56:51.685Z,3.10
2022-10-11T12:01:14.520Z,2.37
2022-10-11T12:05:19.471Z,2.40
2022-10-11T12:09:22.151Z,2.33
2022-10-11T12:13:37.613Z,2.30
2022-10-11T12:17:54.671Z,3.40
2022-10-11T12:22:19.447Z,2.30
2022-10-11T12:26:41.004Z,2.83
2022-10-11T12:30:51.997Z,2.80
2022-10-11T12:35:12.918Z,2.20
2022-10-11T12:39:23.687Z,3.83
2022-10-11T12:43:28.594Z,2.53
2022-10-11T12:47:40.565Z,2.90
2022-10-11T12:51:57.673Z,2.67
2022-10-11T12:56:14.967Z,1.70
2022-10-11T13:00:25.133Z,3.07
2022-10-11T13:04:29.246Z,2.40
2022-10-11T13:08:33.719Z,3.83
2022-10-11T13:12:38.474Z,2.30
2022-10-11T13:16:43.272Z,2.57
2022-10-11T13:20:44.427Z,1.90
2022-10-11T13:24:46.015Z,2.60
2022-10-11T13:28:47.434Z,2.13
2022-10-11T13:32:49.155Z,2.60
2022-10-11T13:36:58.426Z,1.87
2022-10-11T13:41:03.287Z,2.00
2022-10-11T13:45:06.870Z,2.93
2022-10-11T13:49:28.791Z,2.17
2022-10-11T13:53:30.421Z,2.60
2022-10-11T13:57:40.719Z,3.57
2022-10-11T14:01:44.671Z,2.07
2022-10-11T14:05:58.140Z,2.70
2022-10-11T14:09:59.280Z,2.90
2022-10-11T14:14:00.399Z,2.97
2022-10-11T14:18:20.595Z,2.30
2022-10-11T14:22:22.239Z,2.90
2022-10-11T14:26:25.071Z,2.90
2022-10-11T14:30:27.748Z,2.07
2022-10-11T14:34:29.867Z,2.37
2022-10-11T14:38:30.950Z,2.67
2022-10-11T14:42:32.265Z,2.83
2022-10-11T14:46:35.158Z,2.30
2022-10-11T14:50:47.748Z,2.60
2022-10-11T14:54:48.716Z,1.90
2022-10-11T14:58:51.102Z,3.13
2022-10-11T15:02:52.780Z,1.90
2022-10-11T15:06:55.561Z,1.70
2022-10-11T15:10:57.051Z,2.10
2022-10-11T15:14:57.958Z,2.23
2022-10-11T15:18:59.424Z,2.30
2022-10-11T15:23:00.647Z,3.90
2022-10-11T15:27:01.849Z,2.50
2022-10-11T15:31:02.931Z,2.07
2022-10-11T15:35:04.403Z,2.80
2022-10-11T15:39:25.500Z,2.60
2022-10-11T15:43:29.574Z,2.40
2022-10-11T15:47:30.540Z,3.80
2022-10-11T15:51:31.464Z,2.30
2022-10-11T15:55:34.265Z,3.00
2022-10-11T15:59:35.371Z,2.63
2022-10-11T16:03:36.459Z,2.57
2022-10-11T16:07:37.447Z,2.77
2022-10-11T16:11:38.368Z,2.60
2022-10-11T16:15:41.494Z,2.70
2022-10-11T16:19:42.617Z,2.80
2022-10-11T16:23:43.550Z,3.20
2022-10-11T16:27:45.391Z,2.37
2022-10-11T16:31:46.447Z,2.73
2022-10-11T16:35:47.804Z,2.50
2022-10-11T16:39:48.879Z,3.33
2022-10-11T16:43:51.920Z,4.50
2022-10-11T16:47:52.873Z,2.13
2022-10-11T16:51:56.619Z,2.33
2022-10-11T16:55:57.584Z,2.40
2022-10-11T16:59:58.556Z,2.77
2022-10-11T17:04:00.710Z,4.25
2022-10-11T17:08:02.211Z,1.93
2022-10-11T17:12:03.831Z,2.93
2022-10-11T17:16:06.207Z,3.08
2022-10-11T17:20:07.604Z,4.20
2022-10-11T17:24:08.625Z,5.80
2022-10-11T17:28:10.483Z,14.00
2022-10-11T17:32:11.506Z,11.23
2022-10-11T17:36:21.619Z,14.53
2022-10-11T17:40:22.627Z,14.77
2022-10-11T17:44:23.712Z,10.67
2022-10-11T17:48:27.437Z,8.90
2022-10-11T17:52:28.402Z,6.97
2022-10-11T17:56:33.822Z,15.00
2022-10-11T18:00:33.059Z,13.23
2022-10-11T18:04:34.660Z,9.47
2022-10-11T18:08:40.374Z,8.20
2022-10-11T18:12:40.140Z,7.00
2022-10-11T18:16:42.165Z,5.97
2022-10-11T18:20:47.842Z,6.17
2022-10-11T18:24:49.064Z,8.63
2022-10-11T18:28:52.699Z,23.93
2022-10-11T18:32:55.550Z,15.77
2022-10-11T18:36:57.315Z,13.97
2022-10-11T18:41:05.711Z,9.10
2022-10-11T18:45:08.468Z,8.57
2022-10-11T18:49:09.855Z,6.93
2022-10-11T18:53:11.022Z,8.30
2022-10-11T18:57:12.213Z,12.57
2022-10-11T19:01:16.631Z,12.33
2022-10-11T19:05:18.390Z,9.63
2022-10-11T19:09:22.234Z,8.23
2022-10-11T19:13:23.721Z,9.00
2022-10-11T19:17:26.024Z,9.77
2022-10-11T19:21:27.541Z,8.03
2022-10-11T19:25:28.610Z,6.50
2022-10-11T19:29:30.986Z,7.73
2022-10-11T19:33:33.498Z,8.77
2022-10-11T19:37:34.777Z,15.60
2022-10-11T19:41:36.693Z,9.77
2022-10-11T19:45:37.674Z,10.17
2022-10-11T19:49:38.881Z,10.30
2022-10-11T19:53:40.382Z,9.27
2022-10-11T19:57:41.478Z,8.30
2022-10-11T20:01:43.298Z,9.33
2022-10-11T20:05:45.360Z,10.93
2022-10-11T20:09:46.332Z,9.13
2022-10-11T20:13:47.853Z,8.03
2022-10-11T20:17:49.481Z,9.90
2022-10-11T20:21:51.541Z,10.90
2022-10-11T20:26:00.489Z,10.07
2022-10-11T20:30:01.428Z,10.27
2022-10-11T20:34:04.309Z,11.70
2022-10-11T20:38:05.589Z,11.77
2022-10-11T20:42:06.640Z,12.37
2022-10-11T20:46:10.727Z,12.40
2022-10-11T20:50:11.896Z,11.37
2022-10-11T20:54:13.124Z,10.97
2022-10-11T20:58:14.699Z,8.83
2022-10-11T21:02:18.987Z,8.53
2022-10-11T21:06:18.663Z,8.47
2022-10-11T21:10:19.896Z,8.27
2022-10-11T21:14:21.226Z,7.33
2022-10-11T21:18:22.264Z,7.53
2022-10-11T21:22:23.408Z,7.87
2022-10-11T21:26:24.842Z,7.20
2022-10-11T21:30:26.102Z,6.87
2022-10-11T21:34:26.943Z,7.00
2022-10-11T21:38:28.062Z,7.53
2022-10-11T21:42:29.728Z,7.97
2022-10-11T21:50:34.400Z,8.73
2022-10-11T21:54:35.646Z,9.53
2022-10-11T21:58:36.587Z,9.13
2022-10-11T22:02:37.707Z,8.60
2022-10-11T22:06:39.288Z,7.30
2022-10-11T22:10:44.638Z,9.70
2022-10-11T22:14:45.485Z,8.63
2022-10-11T22:18:46.549Z,12.07
2022-10-11T22:22:47.574Z,11.43
2022-10-11T22:26:48.531Z,12.17
2022-10-11T22:30:49.390Z,12.80
2022-10-11T22:34:50.249Z,10.67
2022-10-11T22:38:52.056Z,10.03
2022-10-11T22:42:52.990Z,9.67
2022-10-11T22:46:53.928Z,9.77
2022-10-11T22:50:54.796Z,10.60
2022-10-11T22:54:55.790Z,9.27
2022-10-11T22:58:58.490Z,9.53
2022-10-11T23:02:59.361Z,8.43
2022-10-11T23:07:04.032Z,10.30
2022-10-11T23:11:06.888Z,10.33
2022-10-11T23:15:08.464Z,10.03
2022-10-11T23:19:09.377Z,11.67
2022-10-11T23:23:10.324Z,10.90
2022-10-11T23:27:11.308Z,10.23
2022-10-11T23:31:15.868Z,10.27
2022-10-11T23:35:16.684Z,10.83
2022-10-11T23:39:17.774Z,11.17
2022-10-11T23:43:18.774Z,9.30
2022-10-11T23:47:19.844Z,9.57
2022-10-11T23:51:20.778Z,9.80
2022-10-11T23:55:21.621Z,8.30
2022-10-11T23:59:22.549Z,8.70
